sensor_id;sensor_type;location;lat;lon;timestamp;P1;durP1;ratioP1;P2;durP2;ratioP2
27428;SDS011;14881;48.092;11.574;2023-02-28T00:00:03;6.97;;;5.90;;
27428;SDS011;14881;48.092;11.574;2023-02-28T00:02:36;7.68;;;5.97;;
27428;SDS011;14881;48.092;11.574;2023-02-28T00:05:05;9.07;;;5.55;;
27428;SDS011;14881;48.092;11.574;2023-02-28T00:07:35;10.45;;;6.05;;
27428;SDS011;14881;48.092;11.574;2023-02-28T00:10:04;9.02;;;5.97;;
27428;SDS011;14881;48.092;11.574;2023-02-28T00:12:34;8.90;;;5.53;;
27428;SDS011;14881;48.092;11.574;2023-02-28T00:15:05;9.00;;;6.05;;
27428;SDS011;14881;48.092;11.574;2023-02-28T00:17:34;12.35;;;6.18;;
27428;SDS011;14881;48.092;11.574;2023-02-28T00:20:02;7.57;;;5.88;;
27428;SDS011;14881;48.092;11.574;2023-02-28T00:22:34;10.52;;;6.30;;
27428;SDS011;14881;48.092;11.574;2023-02-28T00:25:02;7.13;;;5.93;;
27428;SDS011;14881;48.092;11.574;2023-02-28T00:27:37;9.80;;;6.10;;
27428;SDS011;14881;48.092;11.574;2023-02-28T00:30:07;9.07;;;6.10;;
27428;SDS011;14881;48.092;11.574;2023-02-28T00:32:37;8.93;;;6.32;;
27428;SDS011;14881;48.092;11.574;2023-02-28T00:35:06;7.90;;;6.03;;
27428;SDS011;14881;48.092;11.574;2023-02-28T00:37:34;8.50;;;6.45;;
27428;SDS011;14881;48.092;11.574;2023-02-28T00:40:03;10.30;;;6.50;;
27428;SDS011;14881;48.092;11.574;2023-02-28T00:42:32;7.38;;;5.97;;
27428;SDS011;14881;48.092;11.574;2023-02-28T00:45:02;10.65;;;5.90;;
27428;SDS011;14881;48.092;11.574;2023-02-28T00:47:31;8.32;;;5.80;;
27428;SDS011;14881;48.092;11.574;2023-02-28T00:50:02;9.25;;;6.20;;
27428;SDS011;14881;48.092;11.574;2023-02-28T00:52:32;9.93;;;6.30;;
27428;SDS011;14881;48.092;11.574;2023-02-28T00:55:00;15.63;;;6.80;;
27428;SDS011;14881;48.092;11.574;2023-02-28T00:57:27;7.97;;;6.30;;
27428;SDS011;14881;48.092;11.574;2023-02-28T00:59:57;9.93;;;6.57;;
27428;SDS011;14881;48.092;11.574;2023-02-28T01:02:26;10.07;;;6.78;;
27428;SDS011;14881;48.092;11.574;2023-02-28T01:04:54;9.88;;;6.65;;
27428;SDS011;14881;48.092;11.574;2023-02-28T01:07:23;8.35;;;6.30;;
27428;SDS011;14881;48.092;11.574;2023-02-28T01:09:50;13.90;;;6.30;;
27428;SDS011;14881;48.092;11.574;2023-02-28T01:12:18;10.27;;;6.95;;
27428;SDS011;14881;48.092;11.574;2023-02-28T01:14:46;9.38;;;6.60;;
27428;SDS011;14881;48.092;11.574;2023-02-28T01:17:14;11.02;;;6.63;;
27428;SDS011;14881;48.092;11.574;2023-02-28T01:19:43;8.07;;;6.38;;
27428;SDS011;14881;48.092;11.574;2023-02-28T01:22:11;9.52;;;6.57;;
27428;SDS011;14881;48.092;11.574;2023-02-28T01:24:39;11.85;;;7.00;;
27428;SDS011;14881;48.092;11.574;2023-02-28T01:27:06;7.57;;;6.18;;
27428;SDS011;14881;48.092;11.574;2023-02-28T01:29:34;8.70;;;6.68;;
27428;SDS011;14881;48.092;11.574;2023-02-28T01:32:02;8.90;;;6.68;;
27428;SDS011;14881;48.092;11.574;2023-02-28T01:34:30;9.30;;;6.70;;
27428;SDS011;14881;48.092;11.574;2023-02-28T01:36:59;9.38;;;6.50;;
27428;SDS011;14881;48.092;11.574;2023-02-28T01:39:29;13.00;;;6.93;;
27428;SDS011;14881;48.092;11.574;2023-02-28T01:41:57;11.00;;;6.75;;
27428;SDS011;14881;48.092;11.574;2023-02-28T01:47:22;9.85;;;7.20;;
27428;SDS011;14881;48.092;11.574;2023-02-28T01:49:53;9.77;;;7.22;;
27428;SDS011;14881;48.092;11.574;2023-02-28T01:52:22;11.63;;;7.28;;
27428;SDS011;14881;48.092;11.574;2023-02-28T01:54:52;10.50;;;7.15;;
27428;SDS011;14881;48.092;11.574;2023-02-28T01:57:26;9.45;;;7.13;;
27428;SDS011;14881;48.092;11.574;2023-02-28T01:59:57;10.27;;;7.13;;
27428;SDS011;14881;48.092;11.574;2023-02-28T02:02:28;11.35;;;7.28;;
27428;SDS011;14881;48.092;11.574;2023-02-28T02:04:57;13.57;;;7.68;;
27428;SDS011;14881;48.092;11.574;2023-02-28T02:07:30;11.20;;;7.38;;
27428;SDS011;14881;48.092;11.574;2023-02-28T02:10:02;11.85;;;7.68;;
27428;SDS011;14881;48.092;11.574;2023-02-28T02:12:36;9.32;;;7.30;;
27428;SDS011;14881;48.092;11.574;2023-02-28T02:15:26;11.63;;;6.85;;
27428;SDS011;14881;48.092;11.574;2023-02-28T02:18:00;9.52;;;7.40;;
27428;SDS011;14881;48.092;11.574;2023-02-28T02:20:38;10.70;;;7.60;;
27428;SDS011;14881;48.092;11.574;2023-02-28T02:23:27;10.77;;;7.63;;
27428;SDS011;14881;48.092;11.574;2023-02-28T02:29:32;14.25;;;7.45;;
27428;SDS011;14881;48.092;11.574;2023-02-28T02:32:35;12.60;;;7.95;;
27428;SDS011;14881;48.092;11.574;2023-02-28T02:35:18;12.73;;;8.05;;
27428;SDS011;14881;48.092;11.574;2023-02-28T02:37:53;12.77;;;7.70;;
27428;SDS011;14881;48.092;11.574;2023-02-28T02:40:27;12.95;;;7.72;;
27428;SDS011;14881;48.092;11.574;2023-02-28T02:43:06;12.60;;;7.40;;
27428;SDS011;14881;48.092;11.574;2023-02-28T02:45:39;11.00;;;7.22;;
27428;SDS011;14881;48.092;11.574;2023-02-28T02:48:15;9.38;;;5.88;;
27428;SDS011;14881;48.092;11.574;2023-02-28T02:50:48;11.23;;;7.75;;
27428;SDS011;14881;48.092;11.574;2023-02-28T02:53:21;14.48;;;7.47;;
27428;SDS011;14881;48.092;11.574;2023-02-28T02:55:52;11.65;;;8.18;;
27428;SDS011;14881;48.092;11.574;2023-02-28T02:58:24;11.95;;;7.60;;
27428;SDS011;14881;48.092;11.574;2023-02-28T03:00:57;11.38;;;7.75;;
27428;SDS011;14881;48.092;11.574;2023-02-28T03:03:28;11.48;;;7.55;;
27428;SDS011;14881;48.092;11.574;2023-02-28T03:06:00;13.23;;;8.45;;
27428;SDS011;14881;48.092;11.574;2023-02-28T03:08:29;13.95;;;7.45;;
27428;SDS011;14881;48.092;11.574;2023-02-28T03:11:03;14.82;;;8.88;;
27428;SDS011;14881;48.092;11.574;2023-02-28T03:13:37;14.23;;;7.63;;
27428;SDS011;14881;48.092;11.574;2023-02-28T03:16:29;14.05;;;8.68;;
27428;SDS011;14881;48.092;11.574;2023-02-28T03:19:04;12.27;;;8.75;;
27428;SDS011;14881;48.092;11.574;2023-02-28T03:21:52;12.30;;;7.85;;
27428;SDS011;14881;48.092;11.574;2023-02-28T03:24:32;14.82;;;8.65;;
27428;SDS011;14881;48.092;11.574;2023-02-28T03:27:08;12.13;;;8.30;;
27428;SDS011;14881;48.092;11.574;2023-02-28T03:29:40;12.98;;;8.20;;
27428;SDS011;14881;48.092;11.574;2023-02-28T03:32:14;14.57;;;8.80;;
27428;SDS011;14881;48.092;11.574;2023-02-28T03:34:54;12.27;;;8.18;;
27428;SDS011;14881;48.092;11.574;2023-02-28T03:37:31;12.77;;;8.55;;
27428;SDS011;14881;48.092;11.574;2023-02-28T03:40:03;14.52;;;8.55;;
27428;SDS011;14881;48.092;11.574;2023-02-28T03:42:35;14.85;;;8.77;;
27428;SDS011;14881;48.092;11.574;2023-02-28T03:45:09;14.65;;;9.25;;
27428;SDS011;14881;48.092;11.574;2023-02-28T03:47:45;11.60;;;8.07;;
27428;SDS011;14881;48.092;11.574;2023-02-28T03:50:18;13.90;;;9.55;;
27428;SDS011;14881;48.092;11.574;2023-02-28T03:52:52;12.80;;;8.32;;
27428;SDS011;14881;48.092;11.574;2023-02-28T03:55:28;17.77;;;9.43;;
27428;SDS011;14881;48.092;11.574;2023-02-28T03:58:01;14.77;;;9.35;;
27428;SDS011;14881;48.092;11.574;2023-02-28T04:00:33;20.13;;;9.63;;
27428;SDS011;14881;48.092;11.574;2023-02-28T04:03:03;14.65;;;8.77;;
27428;SDS011;14881;48.092;11.574;2023-02-28T04:05:31;13.18;;;9.02;;
27428;SDS011;14881;48.092;11.574;2023-02-28T04:08:04;14.40;;;8.75;;
27428;SDS011;14881;48.092;11.574;2023-02-28T04:10:33;17.45;;;9.60;;
27428;SDS011;14881;48.092;11.574;2023-02-28T04:13:01;14.35;;;9.25;;
27428;SDS011;14881;48.092;11.574;2023-02-28T04:15:29;13.55;;;8.95;;
27428;SDS011;14881;48.092;11.574;2023-02-28T04:18:00;15.80;;;10.15;;
27428;SDS011;14881;48.092;11.574;2023-02-28T04:20:28;15.13;;;9.32;;
27428;SDS011;14881;48.092;11.574;2023-02-28T04:22:56;16.05;;;9.68;;
27428;SDS011;14881;48.092;11.574;2023-02-28T04:25:25;15.52;;;9.77;;
27428;SDS011;14881;48.092;11.574;2023-02-28T04:27:53;15.35;;;9.63;;
27428;SDS011;14881;48.092;11.574;2023-02-28T04:30:21;15.82;;;10.15;;
27428;SDS011;14881;48.092;11.574;2023-02-28T04:32:50;17.73;;;10.30;;
27428;SDS011;14881;48.092;11.574;2023-02-28T04:35:18;17.35;;;10.13;;
27428;SDS011;14881;48.092;11.574;2023-02-28T04:37:46;18.95;;;10.25;;
27428;SDS011;14881;48.092;11.574;2023-02-28T04:40:16;17.83;;;11.32;;
27428;SDS011;14881;48.092;11.574;2023-02-28T04:42:45;17.17;;;11.02;;
27428;SDS011;14881;48.092;11.574;2023-02-28T04:45:12;20.00;;;11.85;;
27428;SDS011;14881;48.092;11.574;2023-02-28T04:47:40;20.55;;;11.82;;
27428;SDS011;14881;48.092;11.574;2023-02-28T04:50:09;19.50;;;11.57;;
27428;SDS011;14881;48.092;11.574;2023-02-28T04:52:37;19.75;;;11.88;;
27428;SDS011;14881;48.092;11.574;2023-02-28T04:55:07;21.92;;;12.77;;
27428;SDS011;14881;48.092;11.574;2023-02-28T04:57:36;18.20;;;11.70;;
27428;SDS011;14881;48.092;11.574;2023-02-28T05:00:06;23.33;;;12.77;;
27428;SDS011;14881;48.092;11.574;2023-02-28T05:02:37;20.77;;;12.88;;
27428;SDS011;14881;48.092;11.574;2023-02-28T05:05:06;20.85;;;13.07;;
27428;SDS011;14881;48.092;11.574;2023-02-28T05:07:34;21.23;;;13.25;;
27428;SDS011;14881;48.092;11.574;2023-02-28T05:10:02;22.88;;;12.95;;
27428;SDS011;14881;48.092;11.574;2023-02-28T05:12:31;22.85;;;13.80;;
27428;SDS011;14881;48.092;11.574;2023-02-28T05:14:59;24.27;;;14.20;;
27428;SDS011;14881;48.092;11.574;2023-02-28T05:17:29;24.98;;;13.77;;
27428;SDS011;14881;48.092;11.574;2023-02-28T05:19:57;24.80;;;14.07;;
27428;SDS011;14881;48.092;11.574;2023-02-28T05:22:40;23.33;;;14.70;;
27428;SDS011;14881;48.092;11.574;2023-02-28T05:25:08;23.60;;;13.77;;
27428;SDS011;14881;48.092;11.574;2023-02-28T05:27:41;23.35;;;14.02;;
27428;SDS011;14881;48.092;11.574;2023-02-28T05:30:09;26.52;;;14.82;;
27428;SDS011;14881;48.092;11.574;2023-02-28T05:32:39;26.67;;;15.18;;
27428;SDS011;14881;48.092;11.574;2023-02-28T05:35:09;22.48;;;14.07;;
27428;SDS011;14881;48.092;11.574;2023-02-28T05:37:44;27.55;;;14.50;;
27428;SDS011;14881;48.092;11.574;2023-02-28T05:40:16;28.50;;;15.00;;
27428;SDS011;14881;48.092;11.574;2023-02-28T05:42:46;25.00;;;15.18;;
27428;SDS011;14881;48.092;11.574;2023-02-28T05:45:14;26.38;;;15.07;;
27428;SDS011;14881;48.092;11.574;2023-02-28T05:47:44;26.65;;;16.35;;
27428;SDS011;14881;48.092;11.574;2023-02-28T05:50:12;29.48;;;17.42;;
27428;SDS011;14881;48.092;11.574;2023-02-28T05:52:40;26.25;;;15.82;;
27428;SDS011;14881;48.092;11.574;2023-02-28T05:55:08;27.10;;;16.08;;
27428;SDS011;14881;48.092;11.574;2023-02-28T05:57:36;25.55;;;16.27;;
27428;SDS011;14881;48.092;11.574;2023-02-28T06:00:04;29.25;;;17.08;;
27428;SDS011;14881;48.092;11.574;2023-02-28T06:02:33;29.45;;;15.93;;
27428;SDS011;14881;48.092;11.574;2023-02-28T06:05:02;28.73;;;15.93;;
27428;SDS011;14881;48.092;11.574;2023-02-28T06:07:30;28.02;;;15.95;;
27428;SDS011;14881;48.092;11.574;2023-02-28T06:09:57;26.52;;;16.65;;
27428;SDS011;14881;48.092;11.574;2023-02-28T06:12:25;30.50;;;18.10;;
27428;SDS011;14881;48.092;11.574;2023-02-28T06:14:53;28.75;;;17.50;;
27428;SDS011;14881;48.092;11.574;2023-02-28T06:17:21;28.30;;;16.60;;
27428;SDS011;14881;48.092;11.574;2023-02-28T06:19:48;30.35;;;16.58;;
27428;SDS011;14881;48.092;11.574;2023-02-28T06:22:18;30.10;;;17.58;;
27428;SDS011;14881;48.092;11.574;2023-02-28T06:24:46;31.58;;;16.80;;
27428;SDS011;14881;48.092;11.574;2023-02-28T06:27:14;33.47;;;16.73;;
27428;SDS011;14881;48.092;11.574;2023-02-28T06:29:41;28.92;;;16.95;;
27428;SDS011;14881;48.092;11.574;2023-02-28T06:32:09;28.40;;;17.15;;
27428;SDS011;14881;48.092;11.574;2023-02-28T06:34:37;30.02;;;18.02;;
27428;SDS011;14881;48.092;11.574;2023-02-28T06:37:04;31.35;;;17.42;;
27428;SDS011;14881;48.092;11.574;2023-02-28T06:39:33;27.73;;;17.55;;
27428;SDS011;14881;48.092;11.574;2023-02-28T06:42:01;32.33;;;17.52;;
27428;SDS011;14881;48.092;11.574;2023-02-28T06:44:29;30.95;;;18.00;;
27428;SDS011;14881;48.092;11.574;2023-02-28T06:47:02;25.42;;;16.38;;
27428;SDS011;14881;48.092;11.574;2023-02-28T06:49:30;31.63;;;19.23;;
27428;SDS011;14881;48.092;11.574;2023-02-28T06:51:58;28.35;;;18.15;;
27428;SDS011;14881;48.092;11.574;2023-02-28T06:54:26;32.55;;;18.13;;
27428;SDS011;14881;48.092;11.574;2023-02-28T06:56:56;29.45;;;17.98;;
27428;SDS011;14881;48.092;11.574;2023-02-28T06:59:24;30.05;;;18.40;;
27428;SDS011;14881;48.092;11.574;2023-02-28T07:01:52;28.95;;;17.58;;
27428;SDS011;14881;48.092;11.574;2023-02-28T07:04:23;26.98;;;17.60;;
27428;SDS011;14881;48.092;11.574;2023-02-28T07:06:52;28.75;;;17.30;;
27428;SDS011;14881;48.092;11.574;2023-02-28T07:09:23;29.90;;;17.48;;
27428;SDS011;14881;48.092;11.574;2023-02-28T07:11:57;26.77;;;17.00;;
27428;SDS011;14881;48.092;11.574;2023-02-28T07:14:26;27.08;;;17.15;;
27428;SDS011;14881;48.092;11.574;2023-02-28T07:16:54;28.48;;;17.55;;
27428;SDS011;14881;48.092;11.574;2023-02-28T07:19:22;29.00;;;18.17;;
27428;SDS011;14881;48.092;11.574;2023-02-28T07:21:50;26.42;;;17.25;;
27428;SDS011;14881;48.092;11.574;2023-02-28T07:24:17;29.83;;;17.48;;
27428;SDS011;14881;48.092;11.574;2023-02-28T07:26:47;27.95;;;18.75;;
27428;SDS011;14881;48.092;11.574;2023-02-28T07:29:16;28.58;;;17.55;;
27428;SDS011;14881;48.092;11.574;2023-02-28T07:31:44;29.50;;;18.55;;
27428;SDS011;14881;48.092;11.574;2023-02-28T07:34:13;30.20;;;18.67;;
27428;SDS011;14881;48.092;11.574;2023-02-28T07:36:41;30.70;;;17.70;;
27428;SDS011;14881;48.092;11.574;2023-02-28T07:39:08;27.40;;;17.98;;
27428;SDS011;14881;48.092;11.574;2023-02-28T07:41:36;30.38;;;18.77;;
27428;SDS011;14881;48.092;11.574;2023-02-28T07:44:09;29.52;;;17.77;;
27428;SDS011;14881;48.092;11.574;2023-02-28T07:46:40;31.05;;;19.17;;
27428;SDS011;14881;48.092;11.574;2023-02-28T07:49:09;32.08;;;19.58;;
27428;SDS011;14881;48.092;11.574;2023-02-28T07:51:37;32.60;;;19.95;;
27428;SDS011;14881;48.092;11.574;2023-02-28T07:54:05;31.77;;;18.98;;
27428;SDS011;14881;48.092;11.574;2023-02-28T07:56:33;32.55;;;21.02;;
27428;SDS011;14881;48.092;11.574;2023-02-28T07:59:01;35.42;;;21.75;;
27428;SDS011;14881;48.092;11.574;2023-02-28T08:01:29;30.98;;;20.55;;
27428;SDS011;14881;48.092;11.574;2023-02-28T08:03:59;31.05;;;19.30;;
27428;SDS011;14881;48.092;11.574;2023-02-28T08:06:27;34.92;;;23.65;;
27428;SDS011;14881;48.092;11.574;2023-02-28T08:08:55;34.72;;;21.42;;
27428;SDS011;14881;48.092;11.574;2023-02-28T08:11:24;30.23;;;21.08;;
27428;SDS011;14881;48.092;11.574;2023-02-28T08:13:52;34.47;;;19.55;;
27428;SDS011;14881;48.092;11.574;2023-02-28T08:16:19;29.08;;;18.80;;
27428;SDS011;14881;48.092;11.574;2023-02-28T08:18:49;30.08;;;19.52;;
27428;SDS011;14881;48.092;11.574;2023-02-28T08:21:18;32.88;;;18.92;;
27428;SDS011;14881;48.092;11.574;2023-02-28T08:23:47;48.90;;;29.15;;
27428;SDS011;14881;48.092;11.574;2023-02-28T08:26:15;42.53;;;24.77;;
27428;SDS011;14881;48.092;11.574;2023-02-28T08:28:44;34.55;;;20.80;;
27428;SDS011;14881;48.092;11.574;2023-02-28T08:31:14;32.22;;;20.60;;
27428;SDS011;14881;48.092;11.574;2023-02-28T08:33:43;46.40;;;29.13;;
27428;SDS011;14881;48.092;11.574;2023-02-28T08:36:11;32.20;;;21.48;;
27428;SDS011;14881;48.092;11.574;2023-02-28T08:38:41;34.95;;;21.33;;
27428;SDS011;14881;48.092;11.574;2023-02-28T08:41:10;31.63;;;20.15;;
27428;SDS011;14881;48.092;11.574;2023-02-28T08:43:39;34.65;;;22.50;;
27428;SDS011;14881;48.092;11.574;2023-02-28T08:46:07;29.38;;;19.15;;
27428;SDS011;14881;48.092;11.574;2023-02-28T08:48:38;28.85;;;19.08;;
27428;SDS011;14881;48.092;11.574;2023-02-28T08:51:07;33.92;;;20.20;;
27428;SDS011;14881;48.092;11.574;2023-02-28T08:53:36;28.15;;;18.17;;
27428;SDS011;14881;48.092;11.574;2023-02-28T08:56:07;30.63;;;19.08;;
27428;SDS011;14881;48.092;11.574;2023-02-28T08:58:39;29.33;;;18.45;;
27428;SDS011;14881;48.092;11.574;2023-02-28T09:01:08;31.20;;;19.67;;
27428;SDS011;14881;48.092;11.574;2023-02-28T09:03:38;32.85;;;19.85;;
27428;SDS011;14881;48.092;11.574;2023-02-28T09:06:08;29.70;;;18.63;;
27428;SDS011;14881;48.092;11.574;2023-02-28T09:08:39;32.08;;;18.98;;
27428;SDS011;14881;48.092;11.574;2023-02-28T09:11:08;35.08;;;19.05;;
27428;SDS011;14881;48.092;11.574;2023-02-28T09:13:37;26.73;;;18.15;;
27428;SDS011;14881;48.092;11.574;2023-02-28T09:16:06;28.65;;;18.65;;
27428;SDS011;14881;48.092;11.574;2023-02-28T09:18:36;27.23;;;18.02;;
27428;SDS011;14881;48.092;11.574;2023-02-28T09:21:04;30.40;;;19.48;;
27428;SDS011;14881;48.092;11.574;2023-02-28T09:23:33;30.08;;;19.38;;
27428;SDS011;14881;48.092;11.574;2023-02-28T09:26:04;28.10;;;18.52;;
27428;SDS011;14881;48.092;11.574;2023-02-28T09:28:36;29.38;;;18.67;;
27428;SDS011;14881;48.092;11.574;2023-02-28T09:31:04;30.65;;;19.23;;
27428;SDS011;14881;48.092;11.574;2023-02-28T09:33:32;31.05;;;19.75;;
27428;SDS011;14881;48.092;11.574;2023-02-28T09:36:03;25.33;;;17.70;;
27428;SDS011;14881;48.092;11.574;2023-02-28T09:38:31;25.83;;;18.15;;
27428;SDS011;14881;48.092;11.574;2023-02-28T09:41:00;28.75;;;18.90;;
27428;SDS011;14881;48.092;11.574;2023-02-28T09:43:31;29.75;;;18.25;;
27428;SDS011;14881;48.092;11.574;2023-02-28T09:46:05;29.75;;;17.77;;
27428;SDS011;14881;48.092;11.574;2023-02-28T09:48:41;27.42;;;18.55;;
27428;SDS011;14881;48.092;11.574;2023-02-28T09:51:15;33.95;;;19.27;;
27428;SDS011;14881;48.092;11.574;2023-02-28T09:53:57;26.40;;;18.58;;
27428;SDS011;14881;48.092;11.574;2023-02-28T09:56:28;32.10;;;17.83;;
27428;SDS011;14881;48.092;11.574;2023-02-28T09:59:01;28.27;;;18.65;;
27428;SDS011;14881;48.092;11.574;2023-02-28T10:01:37;26.67;;;18.65;;
27428;SDS011;14881;48.092;11.574;2023-02-28T10:04:11;30.10;;;17.93;;
27428;SDS011;14881;48.092;11.574;2023-02-28T10:06:44;27.52;;;17.15;;
27428;SDS011;14881;48.092;11.574;2023-02-28T10:09:16;25.40;;;18.15;;
27428;SDS011;14881;48.092;11.574;2023-02-28T10:11:46;26.83;;;17.45;;
27428;SDS011;14881;48.092;11.574;2023-02-28T10:14:21;29.40;;;19.00;;
27428;SDS011;14881;48.092;11.574;2023-02-28T10:16:53;30.17;;;17.73;;
27428;SDS011;14881;48.092;11.574;2023-02-28T10:19:24;29.35;;;19.02;;
27428;SDS011;14881;48.092;11.574;2023-02-28T10:21:59;29.30;;;19.30;;
27428;SDS011;14881;48.092;11.574;2023-02-28T10:24:30;30.83;;;19.23;;
27428;SDS011;14881;48.092;11.574;2023-02-28T10:27:14;29.50;;;19.27;;
27428;SDS011;14881;48.092;11.574;2023-02-28T10:29:45;26.70;;;19.15;;
27428;SDS011;14881;48.092;11.574;2023-02-28T10:32:17;29.95;;;18.90;;
27428;SDS011;14881;48.092;11.574;2023-02-28T10:34:49;29.35;;;18.27;;
27428;SDS011;14881;48.092;11.574;2023-02-28T10:37:19;25.83;;;18.02;;
27428;SDS011;14881;48.092;11.574;2023-02-28T10:39:48;29.40;;;17.65;;
27428;SDS011;14881;48.092;11.574;2023-02-28T10:42:20;25.55;;;17.45;;
27428;SDS011;14881;48.092;11.574;2023-02-28T10:45:05;31.33;;;17.90;;
27428;SDS011;14881;48.092;11.574;2023-02-28T10:47:40;26.10;;;17.43;;
27428;SDS011;14881;48.092;11.574;2023-02-28T10:50:29;22.88;;;17.05;;
27428;SDS011;14881;48.092;11.574;2023-02-28T10:55:56;27.80;;;17.58;;
27428;SDS011;14881;48.092;11.574;2023-02-28T10:58:27;28.00;;;17.27;;
27428;SDS011;14881;48.092;11.574;2023-02-28T11:00:57;23.50;;;17.58;;
27428;SDS011;14881;48.092;11.574;2023-02-28T11:03:31;23.58;;;16.67;;
27428;SDS011;14881;48.092;11.574;2023-02-28T11:06:05;24.35;;;17.15;;
27428;SDS011;14881;48.092;11.574;2023-02-28T11:08:35;23.98;;;17.30;;
27428;SDS011;14881;48.092;11.574;2023-02-28T11:11:12;24.85;;;17.67;;
27428;SDS011;14881;48.092;11.574;2023-02-28T11:13:42;26.90;;;18.05;;
27428;SDS011;14881;48.092;11.574;2023-02-28T11:16:12;25.48;;;18.02;;
27428;SDS011;14881;48.092;11.574;2023-02-28T11:18:43;25.23;;;17.52;;
27428;SDS011;14881;48.092;11.574;2023-02-28T11:21:16;27.58;;;18.08;;
27428;SDS011;14881;48.092;11.574;2023-02-28T11:23:48;25.90;;;16.83;;
27428;SDS011;14881;48.092;11.574;2023-02-28T11:29:17;23.90;;;18.15;;
27428;SDS011;14881;48.092;11.574;2023-02-28T11:32:00;24.92;;;18.15;;
27428;SDS011;14881;48.092;11.574;2023-02-28T11:34:41;24.23;;;17.00;;
27428;SDS011;14881;48.092;11.574;2023-02-28T11:37:11;27.50;;;17.98;;
27428;SDS011;14881;48.092;11.574;2023-02-28T11:39:42;22.95;;;17.70;;
27428;SDS011;14881;48.092;11.574;2023-02-28T11:42:32;29.27;;;18.02;;
27428;SDS011;14881;48.092;11.574;2023-02-28T11:45:19;28.73;;;18.15;;
27428;SDS011;14881;48.092;11.574;2023-02-28T11:47:56;28.38;;;18.88;;
27428;SDS011;14881;48.092;11.574;2023-02-28T11:50:52;25.55;;;18.30;;
27428;SDS011;14881;48.092;11.574;2023-02-28T11:55:57;25.23;;;18.10;;
27428;SDS011;14881;48.092;11.574;2023-02-28T11:58:36;29.23;;;18.52;;
27428;SDS011;14881;48.092;11.574;2023-02-28T12:01:26;24.85;;;18.30;;
27428;SDS011;14881;48.092;11.574;2023-02-28T12:04:10;26.50;;;17.45;;
27428;SDS011;14881;48.092;11.574;2023-02-28T12:06:47;23.35;;;17.80;;
27428;SDS011;14881;48.092;11.574;2023-02-28T12:09:24;25.05;;;18.15;;
27428;SDS011;14881;48.092;11.574;2023-02-28T12:12:02;25.20;;;18.50;;
27428;SDS011;14881;48.092;11.574;2023-02-28T12:14:46;24.15;;;17.90;;
27428;SDS011;14881;48.092;11.574;2023-02-28T12:17:26;22.73;;;17.92;;
27428;SDS011;14881;48.092;11.574;2023-02-28T12:20:05;25.13;;;18.38;;
27428;SDS011;14881;48.092;11.574;2023-02-28T12:22:46;26.05;;;18.10;;
27428;SDS011;14881;48.092;11.574;2023-02-28T12:28:18;28.00;;;17.63;;
27428;SDS011;14881;48.092;11.574;2023-02-28T12:30:56;26.60;;;17.02;;
27428;SDS011;14881;48.092;11.574;2023-02-28T12:33:31;27.02;;;17.65;;
27428;SDS011;14881;48.092;11.574;2023-02-28T12:36:03;27.73;;;16.48;;
27428;SDS011;14881;48.092;11.574;2023-02-28T12:38:40;23.02;;;16.83;;
27428;SDS011;14881;48.092;11.574;2023-02-28T12:41:12;27.35;;;18.27;;
27428;SDS011;14881;48.092;11.574;2023-02-28T12:43:43;23.67;;;17.60;;
27428;SDS011;14881;48.092;11.574;2023-02-28T12:46:16;23.58;;;17.40;;
27428;SDS011;14881;48.092;11.574;2023-02-28T12:48:50;25.77;;;17.50;;
27428;SDS011;14881;48.092;11.574;2023-02-28T12:51:21;26.05;;;17.58;;
27428;SDS011;14881;48.092;11.574;2023-02-28T12:53:56;22.00;;;17.60;;
27428;SDS011;14881;48.092;11.574;2023-02-28T12:56:36;23.63;;;17.48;;
27428;SDS011;14881;48.092;11.574;2023-02-28T12:59:10;22.45;;;17.20;;
27428;SDS011;14881;48.092;11.574;2023-02-28T13:01:43;21.52;;;17.42;;
27428;SDS011;14881;48.092;11.574;2023-02-28T13:04:30;23.50;;;16.80;;
27428;SDS011;14881;48.092;11.574;2023-02-28T13:07:33;25.85;;;17.35;;
27428;SDS011;14881;48.092;11.574;2023-02-28T13:10:22;20.85;;;16.33;;
27428;SDS011;14881;48.092;11.574;2023-02-28T13:12:51;23.60;;;16.67;;
27428;SDS011;14881;48.092;11.574;2023-02-28T13:15:22;24.02;;;17.08;;
27428;SDS011;14881;48.092;11.574;2023-02-28T13:17:56;23.67;;;17.33;;
27428;SDS011;14881;48.092;11.574;2023-02-28T13:20:26;24.90;;;17.77;;
27428;SDS011;14881;48.092;11.574;2023-02-28T13:23:02;23.25;;;15.60;;
27428;SDS011;14881;48.092;11.574;2023-02-28T13:31:25;21.70;;;15.85;;
27428;SDS011;14881;48.092;11.574;2023-02-28T13:34:14;25.90;;;16.80;;
27428;SDS011;14881;48.092;11.574;2023-02-28T13:36:42;26.27;;;17.67;;
27428;SDS011;14881;48.092;11.574;2023-02-28T13:42:33;24.63;;;17.80;;
27428;SDS011;14881;48.092;11.574;2023-02-28T13:47:58;25.73;;;17.40;;
27428;SDS011;14881;48.092;11.574;2023-02-28T13:50:28;26.77;;;18.17;;
27428;SDS011;14881;48.092;11.574;2023-02-28T13:56:07;29.55;;;18.45;;
27428;SDS011;14881;48.092;11.574;2023-02-28T13:58:48;22.98;;;17.60;;
27428;SDS011;14881;48.092;11.574;2023-02-28T14:01:25;26.65;;;18.58;;
27428;SDS011;14881;48.092;11.574;2023-02-28T14:04:14;25.80;;;19.52;;
27428;SDS011;14881;48.092;11.574;2023-02-28T14:07:02;30.55;;;22.88;;
27428;SDS011;14881;48.092;11.574;2023-02-28T14:09:31;25.50;;;18.35;;
27428;SDS011;14881;48.092;11.574;2023-02-28T14:17:58;25.77;;;18.85;;
27428;SDS011;14881;48.092;11.574;2023-02-28T14:20:30;26.90;;;19.20;;
27428;SDS011;14881;48.092;11.574;2023-02-28T14:23:04;28.80;;;21.80;;
27428;SDS011;14881;48.092;11.574;2023-02-28T14:25:40;27.67;;;19.73;;
27428;SDS011;14881;48.092;11.574;2023-02-28T14:28:18;26.63;;;19.15;;
27428;SDS011;14881;48.092;11.574;2023-02-28T14:31:01;28.02;;;18.63;;
27428;SDS011;14881;48.092;11.574;2023-02-28T14:33:42;29.73;;;20.40;;
27428;SDS011;14881;48.092;11.574;2023-02-28T14:36:23;27.13;;;18.55;;
27428;SDS011;14881;48.092;11.574;2023-02-28T14:38:55;23.27;;;16.42;;
27428;SDS011;14881;48.092;11.574;2023-02-28T14:41:28;23.98;;;16.55;;
27428;SDS011;14881;48.092;11.574;2023-02-28T14:43:58;22.65;;;16.63;;
27428;SDS011;14881;48.092;11.574;2023-02-28T14:46:30;33.00;;;17.50;;
27428;SDS011;14881;48.092;11.574;2023-02-28T14:49:04;31.08;;;17.63;;
27428;SDS011;14881;48.092;11.574;2023-02-28T14:51:33;25.08;;;17.80;;
27428;SDS011;14881;48.092;11.574;2023-02-28T14:54:02;24.13;;;17.90;;
27428;SDS011;14881;48.092;11.574;2023-02-28T14:56:33;26.92;;;17.85;;
27428;SDS011;14881;48.092;11.574;2023-02-28T14:59:03;22.00;;;17.13;;
27428;SDS011;14881;48.092;11.574;2023-02-28T15:01:34;26.45;;;18.35;;
27428;SDS011;14881;48.092;11.574;2023-02-28T15:04:03;26.63;;;17.83;;
27428;SDS011;14881;48.092;11.574;2023-02-28T15:06:33;26.90;;;18.17;;
27428;SDS011;14881;48.092;11.574;2023-02-28T15:09:09;22.45;;;16.65;;
27428;SDS011;14881;48.092;11.574;2023-02-28T15:11:41;27.15;;;20.00;;
27428;SDS011;14881;48.092;11.574;2023-02-28T15:14:14;24.65;;;18.95;;
27428;SDS011;14881;48.092;11.574;2023-02-28T15:16:49;27.08;;;18.15;;
27428;SDS011;14881;48.092;11.574;2023-02-28T15:19:24;25.35;;;16.70;;